Yakushima, Japan

10:01 AM JST on September 24, 2014 (GMT +0900)
Tanegashima | Change Station
CLOSE
Current Station
Airport
Location: Tanegashima Airport,
Elevation: 778 ft
Nearby Weather Stations

Elev 778 ft 30.60 °N, 130.99 °E | Updated 18 minutes ago

Light Rain Showers
Light Showers Rain Mist
77 °F
Feels Like 77 °F
N
10
Wind Variable Wind from SE

Today
High -- | Low -- °F
--% Chance of Precip.
Yesterday
High -- | Low -- °F
Precip. -- in
6:06 AM 6:12 PM
Waning Crescent, 0% visible
Pressure 29.92 in
Visibility 2.5 miles
Clouds Few 200 ft
Scattered Clouds 400 ft
Mostly Cloudy 600 ft
Dew Point 77 °F
Humidity 100%
Rainfall 0.00 in
Snow Depth Not available.
UV 4 out of 12
Pollen Not available.
Air Quality Not available.
Flu Activity Not available.
SPECI RJFG 240043Z 13009KT 4000 -SHRA BR FEW002 SCT004 BKN006 25/25 Q1013 RMK 1ST002 3ST004 5ST006 A2994

More Conditions Fewer Conditions

Pressure 29.92 in
Visibility 2.5 miles
Clouds Few 200 ft
Scattered Clouds 400 ft
Mostly Cloudy 600 ft
Dew Point 77 °F
Humidity 100%
Rainfall 0.00 in
Snow Depth Not available.
UV 4 out of 12
Pollen Not available.
Air Quality Not available.
Flu Activity Not available.
SPECI RJFG 240043Z 13009KT 4000 -SHRA BR FEW002 SCT004 BKN006 25/25 Q1013 RMK 1ST002 3ST004 5ST006 A2994

More Conditions Fewer Conditions

10-Day Weather Forecast

Almanac

Astronomy

Sep. 24, 2014 Rise Set
Actual Time 6:06 AM JST 6:12 PM JST
Civil Twilight 5:42 AM JST 6:36 PM JST
Nautical Twilight 5:14 AM JST 7:03 PM JST
Astronomical Twilight 4:46 AM JST 7:32 PM JST
Moon 5:51 AM JST 6:05 PM JST
Length of Visible Light 12h 53m
Length of Day
12h 05m
Tomorrow will be 1m 50s shorter.
Waning Crescent, 0% of the Moon is Illuminated
Sep 23
Waning Crescent
Sep 24
New
Oct 1
First Quarter
Oct 8
Full
Oct 15
Last Quarter

Yesterday's Extremes

Country Highs Country Lows

Community

WunderPhotos

Upload Photos

1,755,834 photos uploaded!

Nearby

Snow Depth

Not available.

Earthquake Activity

City Distance Mag. Time & Date
No recent earthquake activity has been reported nearby.
Minimum magnitude displayed is 2.5.

Coastal Water Temperatures

Place Temperature
No Stations Reporting

Nearby Weather Stations